sensor_id;sensor_type;location;lat;lon;timestamp;pressure;altitude;pressure_sealevel;temperature;humidity
55679;BME280;41573;51.446;-2.018;2023-05-22T00:02:23;100957.59;;;12.36;100.00
55679;BME280;41573;51.446;-2.018;2023-05-22T00:04:49;100952.84;;;12.27;100.00
55679;BME280;41573;51.446;-2.018;2023-05-22T00:07:15;100957.69;;;12.20;100.00
55679;BME280;41573;51.446;-2.018;2023-05-22T00:09:40;100959.97;;;12.12;100.00
55679;BME280;41573;51.446;-2.018;2023-05-22T00:12:06;100964.69;;;12.06;100.00
55679;BME280;41573;51.446;-2.018;2023-05-22T00:14:32;100954.31;;;12.02;100.00
55679;BME280;41573;51.446;-2.018;2023-05-22T00:16:57;100945.38;;;12.03;100.00
55679;BME280;41573;51.446;-2.018;2023-05-22T00:19:24;100941.91;;;12.01;100.00
55679;BME280;41573;51.446;-2.018;2023-05-22T00:21:49;100940.22;;;12.00;100.00
55679;BME280;41573;51.446;-2.018;2023-05-22T00:24:15;100939.13;;;12.02;100.00
55679;BME280;41573;51.446;-2.018;2023-05-22T00:26:41;100938.19;;;12.03;100.00
55679;BME280;41573;51.446;-2.018;2023-05-22T00:29:06;100938.28;;;12.02;100.00
55679;BME280;41573;51.446;-2.018;2023-05-22T00:31:32;100927.63;;;12.02;100.00
55679;BME280;41573;51.446;-2.018;2023-05-22T00:33:57;100925.78;;;12.02;100.00
55679;BME280;41573;51.446;-2.018;2023-05-22T00:36:23;100925.25;;;11.97;100.00
55679;BME280;41573;51.446;-2.018;2023-05-22T00:38:48;100918.06;;;11.98;100.00
55679;BME280;41573;51.446;-2.018;2023-05-22T00:41:14;100921.69;;;11.97;100.00
55679;BME280;41573;51.446;-2.018;2023-05-22T00:43:39;100910.25;;;11.95;100.00
55679;BME280;41573;51.446;-2.018;2023-05-22T00:46:05;100908.53;;;11.94;100.00
55679;BME280;41573;51.446;-2.018;2023-05-22T00:48:31;100905.28;;;11.88;100.00
55679;BME280;41573;51.446;-2.018;2023-05-22T00:50:57;100901.16;;;11.83;100.00
55679;BME280;41573;51.446;-2.018;2023-05-22T00:53:24;100906.69;;;11.80;100.00
55679;BME280;41573;51.446;-2.018;2023-05-22T00:55:50;100907.91;;;11.74;100.00
55679;BME280;41573;51.446;-2.018;2023-05-22T00:58:17;100910.00;;;11.69;100.00
55679;BME280;41573;51.446;-2.018;2023-05-22T01:00:43;100905.09;;;11.61;100.00
55679;BME280;41573;51.446;-2.018;2023-05-22T01:03:09;100903.50;;;11.59;100.00
55679;BME280;41573;51.446;-2.018;2023-05-22T01:05:36;100901.97;;;11.54;100.00
55679;BME280;41573;51.446;-2.018;2023-05-22T01:08:03;100900.41;;;11.50;100.00
55679;BME280;41573;51.446;-2.018;2023-05-22T01:10:29;100902.25;;;11.50;100.00
55679;BME280;41573;51.446;-2.018;2023-05-22T01:15:46;100904.50;;;11.42;100.00
55679;BME280;41573;51.446;-2.018;2023-05-22T01:18:19;100904.91;;;11.34;100.00
55679;BME280;41573;51.446;-2.018;2023-05-22T01:20:58;100901.00;;;11.25;100.00
55679;BME280;41573;51.446;-2.018;2023-05-22T01:29:42;100895.88;;;10.74;100.00
55679;BME280;41573;51.446;-2.018;2023-05-22T01:32:14;100894.19;;;10.73;100.00
55679;BME280;41573;51.446;-2.018;2023-05-22T01:34:43;100880.16;;;10.69;100.00
55679;BME280;41573;51.446;-2.018;2023-05-22T01:37:10;100874.56;;;10.74;100.00
55679;BME280;41573;51.446;-2.018;2023-05-22T01:39:37;100875.44;;;10.75;100.00
55679;BME280;41573;51.446;-2.018;2023-05-22T01:42:03;100864.53;;;10.79;100.00
55679;BME280;41573;51.446;-2.018;2023-05-22T01:44:29;100875.78;;;10.52;100.00
55679;BME280;41573;51.446;-2.018;2023-05-22T01:46:55;100891.16;;;10.30;100.00
55679;BME280;41573;51.446;-2.018;2023-05-22T01:49:26;100883.09;;;10.31;100.00
55679;BME280;41573;51.446;-2.018;2023-05-22T01:54:30;100878.19;;;10.24;100.00
55679;BME280;41573;51.446;-2.018;2023-05-22T01:57:06;100879.47;;;10.16;100.00
55679;BME280;41573;51.446;-2.018;2023-05-22T01:59:55;100876.03;;;10.14;100.00
55679;BME280;41573;51.446;-2.018;2023-05-22T02:02:24;100877.84;;;10.14;100.00
55679;BME280;41573;51.446;-2.018;2023-05-22T02:05:00;100879.69;;;10.12;100.00
55679;BME280;41573;51.446;-2.018;2023-05-22T02:07:28;100883.53;;;10.06;100.00
55679;BME280;41573;51.446;-2.018;2023-05-22T02:09:55;100890.78;;;10.04;100.00
55679;BME280;41573;51.446;-2.018;2023-05-22T02:12:22;100896.09;;;10.04;100.00
55679;BME280;41573;51.446;-2.018;2023-05-22T02:14:48;100895.25;;;10.04;100.00
55679;BME280;41573;51.446;-2.018;2023-05-22T02:17:14;100896.25;;;10.01;100.00
55679;BME280;41573;51.446;-2.018;2023-05-22T02:19:42;100898.13;;;9.99;100.00
55679;BME280;41573;51.446;-2.018;2023-05-22T02:22:08;100889.22;;;10.00;100.00
55679;BME280;41573;51.446;-2.018;2023-05-22T02:24:38;100880.47;;;9.98;100.00
55679;BME280;41573;51.446;-2.018;2023-05-22T02:27:06;100882.78;;;10.04;100.00
55679;BME280;41573;51.446;-2.018;2023-05-22T02:29:31;100877.13;;;10.10;100.00
55679;BME280;41573;51.446;-2.018;2023-05-22T02:31:56;100877.75;;;10.15;100.00
55679;BME280;41573;51.446;-2.018;2023-05-22T02:34:22;100868.13;;;10.13;100.00
55679;BME280;41573;51.446;-2.018;2023-05-22T02:36:47;100876.44;;;10.07;100.00
55679;BME280;41573;51.446;-2.018;2023-05-22T02:39:18;100878.84;;;10.11;100.00
55679;BME280;41573;51.446;-2.018;2023-05-22T02:41:44;100878.00;;;10.11;100.00
55679;BME280;41573;51.446;-2.018;2023-05-22T02:44:10;100878.78;;;10.13;100.00
55679;BME280;41573;51.446;-2.018;2023-05-22T02:46:35;100873.28;;;10.16;100.00
55679;BME280;41573;51.446;-2.018;2023-05-22T02:49:01;100873.44;;;10.13;100.00
55679;BME280;41573;51.446;-2.018;2023-05-22T02:51:26;100882.53;;;10.09;100.00
55679;BME280;41573;51.446;-2.018;2023-05-22T02:53:51;100888.72;;;10.09;100.00
55679;BME280;41573;51.446;-2.018;2023-05-22T02:56:17;100880.75;;;10.09;100.00
55679;BME280;41573;51.446;-2.018;2023-05-22T02:58:43;100886.84;;;10.11;100.00
55679;BME280;41573;51.446;-2.018;2023-05-22T03:01:08;100890.44;;;10.10;100.00
55679;BME280;41573;51.446;-2.018;2023-05-22T03:03:34;100874.47;;;10.10;100.00
55679;BME280;41573;51.446;-2.018;2023-05-22T03:06:00;100866.47;;;10.10;100.00
55679;BME280;41573;51.446;-2.018;2023-05-22T03:08:28;100866.56;;;10.09;100.00
55679;BME280;41573;51.446;-2.018;2023-05-22T03:10:56;100863.81;;;10.10;100.00
55679;BME280;41573;51.446;-2.018;2023-05-22T03:13:22;100858.41;;;10.12;100.00
55679;BME280;41573;51.446;-2.018;2023-05-22T03:15:48;100855.91;;;10.09;100.00
55679;BME280;41573;51.446;-2.018;2023-05-22T03:18:13;100858.34;;;10.13;100.00
55679;BME280;41573;51.446;-2.018;2023-05-22T03:20:38;100863.72;;;10.12;100.00
55679;BME280;41573;51.446;-2.018;2023-05-22T03:23:04;100862.81;;;10.13;100.00
55679;BME280;41573;51.446;-2.018;2023-05-22T03:25:29;100859.53;;;10.08;100.00
55679;BME280;41573;51.446;-2.018;2023-05-22T03:27:55;100866.56;;;10.09;100.00
55679;BME280;41573;51.446;-2.018;2023-05-22T03:30:20;100867.59;;;10.06;100.00
55679;BME280;41573;51.446;-2.018;2023-05-22T03:32:45;100865.97;;;10.04;100.00
55679;BME280;41573;51.446;-2.018;2023-05-22T03:35:11;100874.34;;;9.96;100.00
55679;BME280;41573;51.446;-2.018;2023-05-22T03:37:39;100877.34;;;9.90;100.00
55679;BME280;41573;51.446;-2.018;2023-05-22T03:40:05;100876.53;;;9.88;100.00
55679;BME280;41573;51.446;-2.018;2023-05-22T03:42:31;100875.78;;;9.86;100.00
55679;BME280;41573;51.446;-2.018;2023-05-22T03:44:56;100867.03;;;9.83;100.00
55679;BME280;41573;51.446;-2.018;2023-05-22T03:47:21;100876.13;;;9.79;100.00
55679;BME280;41573;51.446;-2.018;2023-05-22T03:49:47;100876.25;;;9.76;100.00
55679;BME280;41573;51.446;-2.018;2023-05-22T03:52:12;100868.28;;;9.76;100.00
55679;BME280;41573;51.446;-2.018;2023-05-22T03:54:37;100864.00;;;9.74;100.00
55679;BME280;41573;51.446;-2.018;2023-05-22T03:57:03;100872.19;;;9.69;100.00
55679;BME280;41573;51.446;-2.018;2023-05-22T03:59:28;100872.09;;;9.71;100.00
55679;BME280;41573;51.446;-2.018;2023-05-22T04:01:54;100870.41;;;9.70;100.00
55679;BME280;41573;51.446;-2.018;2023-05-22T04:04:22;100875.66;;;9.71;100.00
55679;BME280;41573;51.446;-2.018;2023-05-22T04:06:50;100863.13;;;9.73;100.00
55679;BME280;41573;51.446;-2.018;2023-05-22T04:09:16;100866.66;;;9.74;100.00
55679;BME280;41573;51.446;-2.018;2023-05-22T04:11:41;100866.47;;;9.77;100.00
55679;BME280;41573;51.446;-2.018;2023-05-22T04:14:07;100857.63;;;9.76;100.00
55679;BME280;41573;51.446;-2.018;2023-05-22T04:16:33;100858.59;;;9.75;100.00
55679;BME280;41573;51.446;-2.018;2023-05-22T04:18:59;100858.50;;;9.77;100.00
55679;BME280;41573;51.446;-2.018;2023-05-22T04:21:28;100858.75;;;9.72;100.00
55679;BME280;41573;51.446;-2.018;2023-05-22T04:23:53;100864.38;;;9.66;100.00
55679;BME280;41573;51.446;-2.018;2023-05-22T04:26:19;100859.38;;;9.60;100.00
55679;BME280;41573;51.446;-2.018;2023-05-22T04:28:45;100869.84;;;9.63;100.00
55679;BME280;41573;51.446;-2.018;2023-05-22T04:31:14;100862.81;;;9.62;100.00
55679;BME280;41573;51.446;-2.018;2023-05-22T04:33:40;100861.25;;;9.58;100.00
55679;BME280;41573;51.446;-2.018;2023-05-22T04:36:05;100862.97;;;9.59;100.00
55679;BME280;41573;51.446;-2.018;2023-05-22T04:38:33;100861.25;;;9.58;100.00
55679;BME280;41573;51.446;-2.018;2023-05-22T04:41:02;100858.59;;;9.58;100.00
55679;BME280;41573;51.446;-2.018;2023-05-22T04:43:27;100857.97;;;9.53;100.00
55679;BME280;41573;51.446;-2.018;2023-05-22T04:45:54;100858.91;;;9.52;100.00
55679;BME280;41573;51.446;-2.018;2023-05-22T04:48:21;100852.97;;;9.46;100.00
55679;BME280;41573;51.446;-2.018;2023-05-22T04:50:47;100860.16;;;9.44;100.00
55679;BME280;41573;51.446;-2.018;2023-05-22T04:53:13;100864.63;;;9.44;100.00
55679;BME280;41573;51.446;-2.018;2023-05-22T04:55:38;100865.66;;;9.41;100.00
55679;BME280;41573;51.446;-2.018;2023-05-22T04:58:03;100861.25;;;9.40;100.00
55679;BME280;41573;51.446;-2.018;2023-05-22T05:00:30;100862.09;;;9.41;100.00
55679;BME280;41573;51.446;-2.018;2023-05-22T05:02:55;100860.25;;;9.43;100.00
55679;BME280;41573;51.446;-2.018;2023-05-22T05:05:22;100866.56;;;9.40;100.00
55679;BME280;41573;51.446;-2.018;2023-05-22T05:07:48;100861.19;;;9.42;100.00
55679;BME280;41573;51.446;-2.018;2023-05-22T05:10:14;100868.47;;;9.38;100.00
55679;BME280;41573;51.446;-2.018;2023-05-22T05:12:39;100880.59;;;9.44;100.00
55679;BME280;41573;51.446;-2.018;2023-05-22T05:15:06;100867.50;;;9.39;100.00
55679;BME280;41573;51.446;-2.018;2023-05-22T05:17:31;100868.31;;;9.41;100.00
55679;BME280;41573;51.446;-2.018;2023-05-22T05:19:57;100858.75;;;9.37;100.00
55679;BME280;41573;51.446;-2.018;2023-05-22T05:22:22;100859.94;;;9.31;100.00
55679;BME280;41573;51.446;-2.018;2023-05-22T05:24:47;100865.41;;;9.28;100.00
55679;BME280;41573;51.446;-2.018;2023-05-22T05:27:13;100868.16;;;9.27;100.00
55679;BME280;41573;51.446;-2.018;2023-05-22T05:29:39;100868.16;;;9.27;100.00
55679;BME280;41573;51.446;-2.018;2023-05-22T05:32:05;100859.22;;;9.28;100.00
55679;BME280;41573;51.446;-2.018;2023-05-22T05:34:30;100859.78;;;9.35;100.00
55679;BME280;41573;51.446;-2.018;2023-05-22T05:36:57;100853.28;;;9.40;100.00
55679;BME280;41573;51.446;-2.018;2023-05-22T05:39:22;100853.84;;;9.47;100.00
55679;BME280;41573;51.446;-2.018;2023-05-22T05:41:48;100856.09;;;9.55;100.00
55679;BME280;41573;51.446;-2.018;2023-05-22T05:44:13;100852.25;;;9.60;100.00
55679;BME280;41573;51.446;-2.018;2023-05-22T05:46:38;100846.47;;;9.70;100.00
55679;BME280;41573;51.446;-2.018;2023-05-22T05:49:07;100851.38;;;9.77;100.00
55679;BME280;41573;51.446;-2.018;2023-05-22T05:51:37;100851.06;;;9.83;100.00
55679;BME280;41573;51.446;-2.018;2023-05-22T05:54:03;100849.84;;;9.89;100.00
55679;BME280;41573;51.446;-2.018;2023-05-22T05:56:28;100839.75;;;9.96;100.00
55679;BME280;41573;51.446;-2.018;2023-05-22T05:58:54;100849.91;;;10.05;100.00
55679;BME280;41573;51.446;-2.018;2023-05-22T06:01:19;100859.03;;;10.17;100.00
55679;BME280;41573;51.446;-2.018;2023-05-22T06:03:48;100855.00;;;10.26;100.00
55679;BME280;41573;51.446;-2.018;2023-05-22T06:06:13;100852.03;;;10.32;100.00
55679;BME280;41573;51.446;-2.018;2023-05-22T06:08:39;100862.19;;;10.41;100.00
55679;BME280;41573;51.446;-2.018;2023-05-22T06:11:06;100857.31;;;10.49;100.00
55679;BME280;41573;51.446;-2.018;2023-05-22T06:13:31;100865.91;;;10.55;100.00
55679;BME280;41573;51.446;-2.018;2023-05-22T06:15:57;100867.34;;;10.60;100.00
55679;BME280;41573;51.446;-2.018;2023-05-22T06:18:22;100876.66;;;10.69;100.00
55679;BME280;41573;51.446;-2.018;2023-05-22T06:20:50;100870.25;;;10.72;100.00
55679;BME280;41573;51.446;-2.018;2023-05-22T06:23:15;100878.97;;;10.75;100.00
55679;BME280;41573;51.446;-2.018;2023-05-22T06:25:40;100873.44;;;10.78;100.00
55679;BME280;41573;51.446;-2.018;2023-05-22T06:28:06;100875.84;;;10.83;100.00
55679;BME280;41573;51.446;-2.018;2023-05-22T06:30:31;100879.09;;;11.04;100.00
55679;BME280;41573;51.446;-2.018;2023-05-22T06:32:57;100879.28;;;11.01;100.00
55679;BME280;41573;51.446;-2.018;2023-05-22T06:35:22;100884.59;;;11.01;100.00
55679;BME280;41573;51.446;-2.018;2023-05-22T06:37:47;100878.16;;;11.05;100.00
55679;BME280;41573;51.446;-2.018;2023-05-22T06:40:13;100884.94;;;11.11;100.00
55679;BME280;41573;51.446;-2.018;2023-05-22T06:42:39;100887.34;;;11.15;100.00
55679;BME280;41573;51.446;-2.018;2023-05-22T06:45:05;100889.81;;;11.18;100.00
55679;BME280;41573;51.446;-2.018;2023-05-22T06:47:31;100899.25;;;11.24;100.00
55679;BME280;41573;51.446;-2.018;2023-05-22T06:49:56;100901.84;;;11.26;100.00
55679;BME280;41573;51.446;-2.018;2023-05-22T06:52:22;100898.94;;;11.30;100.00
55679;BME280;41573;51.446;-2.018;2023-05-22T06:54:47;100907.59;;;11.34;100.00
55679;BME280;41573;51.446;-2.018;2023-05-22T06:57:13;100902.84;;;11.39;100.00
55679;BME280;41573;51.446;-2.018;2023-05-22T06:59:38;100898.38;;;11.39;100.00
55679;BME280;41573;51.446;-2.018;2023-05-22T07:02:04;100902.75;;;11.41;100.00
55679;BME280;41573;51.446;-2.018;2023-05-22T07:04:29;100903.63;;;11.41;100.00
55679;BME280;41573;51.446;-2.018;2023-05-22T07:06:55;100905.25;;;11.44;100.00
55679;BME280;41573;51.446;-2.018;2023-05-22T07:09:20;100899.81;;;11.45;100.00
55679;BME280;41573;51.446;-2.018;2023-05-22T07:11:46;100903.19;;;11.49;100.00
55679;BME280;41573;51.446;-2.018;2023-05-22T07:14:11;100900.31;;;11.52;100.00
55679;BME280;41573;51.446;-2.018;2023-05-22T07:16:40;100906.25;;;11.57;100.00
55679;BME280;41573;51.446;-2.018;2023-05-22T07:19:06;100905.03;;;11.63;100.00
55679;BME280;41573;51.446;-2.018;2023-05-22T07:21:33;100918.00;;;11.69;100.00
55679;BME280;41573;51.446;-2.018;2023-05-22T07:24:02;100906.19;;;11.73;100.00
55679;BME280;41573;51.446;-2.018;2023-05-22T07:26:33;100919.34;;;11.76;100.00
55679;BME280;41573;51.446;-2.018;2023-05-22T07:28:59;100922.72;;;11.80;100.00
55679;BME280;41573;51.446;-2.018;2023-05-22T07:31:25;100934.97;;;11.82;100.00
55679;BME280;41573;51.446;-2.018;2023-05-22T07:33:50;100932.16;;;11.85;100.00
55679;BME280;41573;51.446;-2.018;2023-05-22T07:36:16;100934.53;;;11.90;100.00
55679;BME280;41573;51.446;-2.018;2023-05-22T07:38:43;100936.09;;;11.94;100.00
55679;BME280;41573;51.446;-2.018;2023-05-22T07:41:08;100939.44;;;11.98;100.00
55679;BME280;41573;51.446;-2.018;2023-05-22T07:43:33;100939.06;;;12.04;100.00
55679;BME280;41573;51.446;-2.018;2023-05-22T07:45:59;100943.25;;;12.08;100.00
55679;BME280;41573;51.446;-2.018;2023-05-22T07:48:24;100947.56;;;12.11;100.00
55679;BME280;41573;51.446;-2.018;2023-05-22T07:50:49;100946.50;;;12.13;100.00
55679;BME280;41573;51.446;-2.018;2023-05-22T07:53:18;100957.78;;;12.18;100.00
55679;BME280;41573;51.446;-2.018;2023-05-22T07:55:43;100953.97;;;12.22;100.00
55679;BME280;41573;51.446;-2.018;2023-05-22T07:58:09;100961.78;;;12.26;100.00
55679;BME280;41573;51.446;-2.018;2023-05-22T08:00:35;100950.72;;;12.32;100.00
55679;BME280;41573;51.446;-2.018;2023-05-22T08:03:00;100956.66;;;12.37;100.00
55679;BME280;41573;51.446;-2.018;2023-05-22T08:05:26;100970.66;;;12.40;100.00
55679;BME280;41573;51.446;-2.018;2023-05-22T08:07:51;100970.41;;;12.45;100.00
55679;BME280;41573;51.446;-2.018;2023-05-22T08:10:17;100976.19;;;12.52;100.00
55679;BME280;41573;51.446;-2.018;2023-05-22T08:12:43;100973.16;;;12.58;100.00
55679;BME280;41573;51.446;-2.018;2023-05-22T08:15:09;100971.91;;;12.64;100.00
55679;BME280;41573;51.446;-2.018;2023-05-22T08:17:35;100985.81;;;12.69;100.00
55679;BME280;41573;51.446;-2.018;2023-05-22T08:20:00;100989.09;;;12.74;100.00
55679;BME280;41573;51.446;-2.018;2023-05-22T08:22:28;100983.53;;;12.77;100.00
55679;BME280;41573;51.446;-2.018;2023-05-22T08:24:54;100981.59;;;12.79;100.00
55679;BME280;41573;51.446;-2.018;2023-05-22T08:27:19;100983.13;;;12.83;100.00
55679;BME280;41573;51.446;-2.018;2023-05-22T08:29:44;100974.84;;;12.88;100.00
55679;BME280;41573;51.446;-2.018;2023-05-22T08:32:10;100967.47;;;12.91;100.00
55679;BME280;41573;51.446;-2.018;2023-05-22T08:34:35;100954.78;;;12.95;100.00
55679;BME280;41573;51.446;-2.018;2023-05-22T08:37:01;100967.09;;;12.98;100.00
55679;BME280;41573;51.446;-2.018;2023-05-22T08:39:27;100971.09;;;13.05;100.00
55679;BME280;41573;51.446;-2.018;2023-05-22T08:41:53;100977.75;;;13.12;100.00
55679;BME280;41573;51.446;-2.018;2023-05-22T08:44:18;100975.63;;;13.17;100.00
55679;BME280;41573;51.446;-2.018;2023-05-22T08:46:45;100975.69;;;13.30;100.00
55679;BME280;41573;51.446;-2.018;2023-05-22T08:49:11;100975.34;;;13.36;100.00
55679;BME280;41573;51.446;-2.018;2023-05-22T08:51:39;100978.34;;;13.44;100.00
55679;BME280;41573;51.446;-2.018;2023-05-22T08:54:07;100967.50;;;13.60;100.00
55679;BME280;41573;51.446;-2.018;2023-05-22T08:56:33;100984.84;;;13.68;100.00
55679;BME280;41573;51.446;-2.018;2023-05-22T08:58:59;100974.81;;;13.84;100.00
55679;BME280;41573;51.446;-2.018;2023-05-22T09:01:27;100976.44;;;14.00;100.00
55679;BME280;41573;51.446;-2.018;2023-05-22T09:03:54;100981.81;;;14.12;100.00
55679;BME280;41573;51.446;-2.018;2023-05-22T09:06:23;100990.84;;;14.24;100.00
55679;BME280;41573;51.446;-2.018;2023-05-22T09:08:48;100975.63;;;14.38;100.00
55679;BME280;41573;51.446;-2.018;2023-05-22T09:11:14;100965.53;;;14.54;100.00
55679;BME280;41573;51.446;-2.018;2023-05-22T09:13:39;100988.91;;;14.65;100.00
55679;BME280;41573;51.446;-2.018;2023-05-22T09:16:10;100994.25;;;14.78;100.00
55679;BME280;41573;51.446;-2.018;2023-05-22T09:18:36;101006.16;;;14.87;100.00
55679;BME280;41573;51.446;-2.018;2023-05-22T09:21:03;101019.75;;;14.96;100.00
55679;BME280;41573;51.446;-2.018;2023-05-22T09:23:29;101027.63;;;14.99;100.00
55679;BME280;41573;51.446;-2.018;2023-05-22T09:25:59;101022.72;;;15.17;100.00
55679;BME280;41573;51.446;-2.018;2023-05-22T09:28:25;101016.59;;;15.28;100.00
55679;BME280;41573;51.446;-2.018;2023-05-22T09:30:52;101032.75;;;15.40;100.00
55679;BME280;41573;51.446;-2.018;2023-05-22T09:33:18;101019.50;;;15.49;100.00
55679;BME280;41573;51.446;-2.018;2023-05-22T09:35:48;101030.88;;;15.53;100.00
55679;BME280;41573;51.446;-2.018;2023-05-22T09:38:15;101045.03;;;15.55;100.00
55679;BME280;41573;51.446;-2.018;2023-05-22T09:40:41;101043.63;;;15.62;100.00
55679;BME280;41573;51.446;-2.018;2023-05-22T09:43:10;101037.53;;;15.72;100.00
55679;BME280;41573;51.446;-2.018;2023-05-22T09:45:37;101023.25;;;15.84;100.00
55679;BME280;41573;51.446;-2.018;2023-05-22T09:48:07;101015.75;;;16.00;100.00
55679;BME280;41573;51.446;-2.018;2023-05-22T09:50:33;101033.59;;;16.13;100.00
55679;BME280;41573;51.446;-2.018;2023-05-22T09:53:03;101045.56;;;16.20;100.00
55679;BME280;41573;51.446;-2.018;2023-05-22T09:55:29;101045.84;;;16.28;100.00
55679;BME280;41573;51.446;-2.018;2023-05-22T09:57:56;101053.66;;;16.31;100.00
55679;BME280;41573;51.446;-2.018;2023-05-22T10:00:23;101059.69;;;16.35;100.00
55679;BME280;41573;51.446;-2.018;2023-05-22T10:02:57;101063.72;;;16.41;100.00
55679;BME280;41573;51.446;-2.018;2023-05-22T10:05:29;101068.13;;;16.42;100.00
55679;BME280;41573;51.446;-2.018;2023-05-22T10:07:56;101066.91;;;16.46;100.00
55679;BME280;41573;51.446;-2.018;2023-05-22T10:10:26;101067.91;;;16.45;100.00
55679;BME280;41573;51.446;-2.018;2023-05-22T10:13:03;101074.25;;;16.55;100.00
55679;BME280;41573;51.446;-2.018;2023-05-22T10:15:33;101080.59;;;16.54;100.00
55679;BME280;41573;51.446;-2.018;2023-05-22T10:17:59;101074.97;;;16.57;100.00
55679;BME280;41573;51.446;-2.018;2023-05-22T10:20:25;101076.34;;;16.63;100.00
55679;BME280;41573;51.446;-2.018;2023-05-22T10:22:52;101074.78;;;16.71;100.00
55679;BME280;41573;51.446;-2.018;2023-05-22T10:25:18;101077.22;;;16.75;100.00
55679;BME280;41573;51.446;-2.018;2023-05-22T10:27:46;101078.94;;;16.87;100.00
55679;BME280;41573;51.446;-2.018;2023-05-22T10:33:09;101071.41;;;17.03;100.00
55679;BME280;41573;51.446;-2.018;2023-05-22T10:35:41;101089.00;;;17.08;100.00
55679;BME280;41573;51.446;-2.018;2023-05-22T10:40:55;101063.69;;;17.21;100.00
55679;BME280;41573;51.446;-2.018;2023-05-22T10:43:21;101069.78;;;17.23;100.00
55679;BME280;41573;51.446;-2.018;2023-05-22T10:45:47;101058.78;;;17.27;100.00
55679;BME280;41573;51.446;-2.018;2023-05-22T10:48:13;101057.16;;;17.47;100.00
55679;BME280;41573;51.446;-2.018;2023-05-22T10:50:39;101058.75;;;17.49;100.00
55679;BME280;41573;51.446;-2.018;2023-05-22T10:53:22;101056.41;;;17.56;100.00
55679;BME280;41573;51.446;-2.018;2023-05-22T10:55:55;101060.03;;;17.66;100.00
55679;BME280;41573;51.446;-2.018;2023-05-22T10:58:26;101064.56;;;17.77;100.00
55679;BME280;41573;51.446;-2.018;2023-05-22T11:01:12;101055.34;;;17.91;100.00
55679;BME280;41573;51.446;-2.018;2023-05-22T11:06:28;101049.09;;;17.90;100.00
55679;BME280;41573;51.446;-2.018;2023-05-22T11:08:54;101047.97;;;17.93;100.00
55679;BME280;41573;51.446;-2.018;2023-05-22T11:11:23;101046.25;;;17.92;100.00
55679;BME280;41573;51.446;-2.018;2023-05-22T11:13:52;101045.09;;;18.06;100.00
55679;BME280;41573;51.446;-2.018;2023-05-22T11:16:30;101048.13;;;18.13;100.00
55679;BME280;41573;51.446;-2.018;2023-05-22T11:19:05;101027.03;;;18.18;100.00
55679;BME280;41573;51.446;-2.018;2023-05-22T11:21:42;101016.78;;;18.33;100.00
55679;BME280;41573;51.446;-2.018;2023-05-22T11:24:09;101046.44;;;18.33;100.00
55679;BME280;41573;51.446;-2.018;2023-05-22T11:26:34;101039.25;;;18.43;100.00
55679;BME280;41573;51.446;-2.018;2023-05-22T11:29:00;101033.22;;;18.51;100.00
55679;BME280;41573;51.446;-2.018;2023-05-22T11:31:26;101033.28;;;18.60;100.00
55679;BME280;41573;51.446;-2.018;2023-05-22T11:33:53;101043.13;;;18.50;100.00
55679;BME280;41573;51.446;-2.018;2023-05-22T11:36:19;101037.66;;;18.61;100.00
55679;BME280;41573;51.446;-2.018;2023-05-22T11:38:44;101027.59;;;18.64;100.00
55679;BME280;41573;51.446;-2.018;2023-05-22T11:41:10;101034.97;;;18.61;100.00
55679;BME280;41573;51.446;-2.018;2023-05-22T11:43:36;101042.41;;;18.69;100.00
55679;BME280;41573;51.446;-2.018;2023-05-22T11:46:06;101033.22;;;18.82;100.00
55679;BME280;41573;51.446;-2.018;2023-05-22T11:48:33;101033.28;;;18.91;100.00
55679;BME280;41573;51.446;-2.018;2023-05-22T11:50:59;101024.84;;;19.16;100.00
55679;BME280;41573;51.446;-2.018;2023-05-22T11:53:24;101029.72;;;19.22;100.00
55679;BME280;41573;51.446;-2.018;2023-05-22T11:55:50;101033.69;;;19.37;100.00
55679;BME280;41573;51.446;-2.018;2023-05-22T11:58:20;101045.06;;;19.31;100.00
55679;BME280;41573;51.446;-2.018;2023-05-22T12:00:46;101031.72;;;19.39;100.00
55679;BME280;41573;51.446;-2.018;2023-05-22T12:03:12;101036.69;;;19.34;100.00
55679;BME280;41573;51.446;-2.018;2023-05-22T12:05:37;101038.28;;;19.46;100.00
55679;BME280;41573;51.446;-2.018;2023-05-22T12:08:03;101048.25;;;19.46;100.00
55679;BME280;41573;51.446;-2.018;2023-05-22T12:10:28;101038.97;;;19.49;100.00
55679;BME280;41573;51.446;-2.018;2023-05-22T12:12:54;101027.78;;;19.53;100.00
55679;BME280;41573;51.446;-2.018;2023-05-22T12:15:19;101027.06;;;19.61;100.00
55679;BME280;41573;51.446;-2.018;2023-05-22T12:17:45;101030.06;;;19.68;100.00
55679;BME280;41573;51.446;-2.018;2023-05-22T12:20:12;101031.69;;;19.80;100.00
55679;BME280;41573;51.446;-2.018;2023-05-22T12:22:42;101033.50;;;19.79;100.00
55679;BME280;41573;51.446;-2.018;2023-05-22T12:25:15;101028.41;;;19.96;100.00
55679;BME280;41573;51.446;-2.018;2023-05-22T12:27:44;101021.13;;;20.06;100.00
55679;BME280;41573;51.446;-2.018;2023-05-22T12:30:13;101025.81;;;20.14;100.00
55679;BME280;41573;51.446;-2.018;2023-05-22T12:32:39;101019.25;;;20.26;100.00
55679;BME280;41573;51.446;-2.018;2023-05-22T12:35:05;101022.94;;;20.35;100.00
55679;BME280;41573;51.446;-2.018;2023-05-22T12:37:32;101025.78;;;20.24;100.00
55679;BME280;41573;51.446;-2.018;2023-05-22T12:40:00;101021.25;;;20.34;100.00
55679;BME280;41573;51.446;-2.018;2023-05-22T12:42:26;101018.53;;;20.34;100.00
55679;BME280;41573;51.446;-2.018;2023-05-22T12:44:52;101023.53;;;20.29;100.00
55679;BME280;41573;51.446;-2.018;2023-05-22T12:47:18;100999.88;;;20.31;100.00
55679;BME280;41573;51.446;-2.018;2023-05-22T12:49:44;100996.00;;;20.43;100.00
55679;BME280;41573;51.446;-2.018;2023-05-22T12:52:09;100994.59;;;20.39;100.00